createdAt,value
2018-08-03T00:02:11.416Z,96745.00
2018-08-03T00:04:41.473Z,96747.00
2018-08-03T00:07:11.547Z,96748.00
2018-08-03T00:09:41.612Z,96740.00
2018-08-03T00:12:11.700Z,96733.00
2018-08-03T00:14:41.768Z,96733.00
2018-08-03T00:17:11.978Z,96739.00
2018-08-03T00:19:42.457Z,96735.00
2018-08-03T00:22:12.568Z,96739.00
2018-08-03T00:24:42.648Z,96731.00
2018-08-03T00:27:12.730Z,96741.00
2018-08-03T00:29:42.838Z,96742.00
2018-08-03T00:32:12.916Z,96735.00
2018-08-03T00:34:43.007Z,96734.00
2018-08-03T00:37:13.098Z,96732.00
2018-08-03T00:39:43.185Z,96732.00
2018-08-03T00:42:13.251Z,96728.00
2018-08-03T00:44:43.314Z,96720.00
2018-08-03T00:47:13.588Z,96719.00
2018-08-03T00:49:43.649Z,96721.00
2018-08-03T00:52:13.739Z,96718.00
2018-08-03T00:54:43.815Z,96728.00
2018-08-03T00:57:13.895Z,96725.00
2018-08-03T00:59:43.971Z,96733.00
2018-08-03T01:02:14.055Z,96728.00
2018-08-03T01:04:44.120Z,96720.00
2018-08-03T01:07:14.196Z,96724.00
2018-08-03T01:09:44.307Z,96727.00
2018-08-03T01:12:14.390Z,96732.00
2018-08-03T01:14:44.483Z,96730.00
2018-08-03T01:17:14.581Z,96731.00
2018-08-03T01:19:44.684Z,96725.00
2018-08-03T01:22:14.843Z,96726.00
2018-08-03T01:24:44.999Z,96724.00
2018-08-03T01:27:15.071Z,96719.00
2018-08-03T01:29:45.163Z,96722.00
2018-08-03T01:32:15.256Z,96723.00
2018-08-03T01:34:45.393Z,96724.00
2018-08-03T01:37:15.435Z,96725.00
2018-08-03T01:39:45.620Z,96719.00
2018-08-03T01:42:15.680Z,96727.00
2018-08-03T01:44:45.745Z,96730.00
2018-08-03T01:47:15.857Z,96733.00
2018-08-03T01:49:45.909Z,96727.00
2018-08-03T01:52:16.096Z,96724.00
2018-08-03T01:54:46.192Z,96732.00
2018-08-03T01:57:16.247Z,96729.00
2018-08-03T01:59:46.330Z,96723.00
2018-08-03T02:02:16.407Z,96721.00
2018-08-03T02:04:46.524Z,96724.00
2018-08-03T02:07:16.607Z,96721.00
2018-08-03T02:09:46.780Z,96721.00
2018-08-03T02:12:16.849Z,96715.00
2018-08-03T02:14:46.929Z,96718.00
2018-08-03T02:17:17.004Z,96714.00
2018-08-03T02:19:47.064Z,96717.00
2018-08-03T02:22:17.179Z,96717.00
2018-08-03T02:24:47.288Z,96714.00
2018-08-03T02:27:17.382Z,96719.00
2018-08-03T02:29:47.484Z,96717.00
2018-08-03T02:32:17.547Z,96724.00
2018-08-03T02:34:47.644Z,96720.00
2018-08-03T02:37:17.784Z,96717.00
2018-08-03T02:39:47.880Z,96713.00
2018-08-03T02:42:17.936Z,96714.00
2018-08-03T02:44:48.030Z,96715.00
2018-08-03T02:47:18.083Z,96717.00
2018-08-03T02:49:48.151Z,96721.00
2018-08-03T02:52:18.216Z,96722.00
2018-08-03T02:54:48.361Z,96721.00
2018-08-03T02:57:18.412Z,96719.00
2018-08-03T02:59:48.488Z,96731.00
2018-08-03T03:02:18.559Z,96732.00
2018-08-03T03:04:48.612Z,96735.00
2018-08-03T03:07:18.699Z,96726.00
2018-08-03T03:09:48.735Z,96713.00
2018-08-03T03:12:18.817Z,96722.00
2018-08-03T03:14:48.892Z,96720.00
2018-08-03T03:17:18.967Z,96717.00
2018-08-03T03:19:49.061Z,96724.00
2018-08-03T03:22:19.304Z,96729.00
2018-08-03T03:24:49.368Z,96728.00
2018-08-03T03:27:19.457Z,96728.00
2018-08-03T03:29:49.563Z,96726.00
2018-08-03T03:32:19.667Z,96736.00
2018-08-03T03:34:49.724Z,96736.00
2018-08-03T03:37:19.842Z,96732.00
2018-08-03T03:39:49.972Z,96751.00
2018-08-03T03:42:20.073Z,96740.00
2018-08-03T03:44:50.182Z,96744.00
2018-08-03T03:47:20.278Z,96739.00
2018-08-03T03:49:50.365Z,96732.00
2018-08-03T03:52:20.501Z,96734.00
2018-08-03T04:01:15.811Z,96743.00
2018-08-03T04:03:46.613Z,96751.00
2018-08-03T04:06:16.725Z,96742.00
2018-08-03T04:08:46.849Z,96747.00
2018-08-03T04:11:16.940Z,96743.00
2018-08-03T04:13:47.068Z,96745.00
2018-08-03T04:16:17.276Z,96750.00
2018-08-03T04:25:17.412Z,96746.00
2018-08-03T04:27:51.197Z,96751.00
2018-08-03T04:44:37.889Z,96771.00
2018-08-03T04:51:51.114Z,96764.00
2018-08-03T04:55:04.068Z,96775.00
2018-08-03T04:57:34.129Z,96771.00
2018-08-03T05:00:04.363Z,96766.00
2018-08-03T05:02:34.457Z,96773.00
2018-08-03T05:05:04.592Z,96775.00
2018-08-03T05:07:34.660Z,96777.00
2018-08-03T05:10:05.228Z,96784.00
2018-08-03T05:12:35.480Z,96779.00
2018-08-03T05:15:06.171Z,96776.00
2018-08-03T05:17:36.253Z,96773.00
2018-08-03T05:20:06.796Z,96784.00
2018-08-03T05:22:36.948Z,96784.00
2018-08-03T05:25:07.304Z,96780.00
2018-08-03T05:27:37.365Z,96784.00
2018-08-03T05:30:09.443Z,96782.00
2018-08-03T05:32:39.543Z,96786.00
2018-08-03T05:35:09.780Z,96789.00
2018-08-03T05:37:39.888Z,96787.00
2018-08-03T05:40:10.220Z,96797.00
2018-08-03T05:42:40.922Z,96798.00
2018-08-03T05:45:11.223Z,96798.00
2018-08-03T05:47:41.483Z,96804.00
2018-08-03T05:50:11.805Z,96808.00
2018-08-03T05:52:42.083Z,96808.00
2018-08-03T05:55:12.388Z,96804.00
2018-08-03T05:57:42.664Z,96799.00
2018-08-03T06:00:13.074Z,96801.00
2018-08-03T06:02:43.164Z,96813.00
2018-08-03T06:05:13.265Z,96809.00
2018-08-03T06:07:43.928Z,96806.00
2018-08-03T06:10:14.324Z,96802.00
2018-08-03T06:12:44.756Z,96807.00
2018-08-03T06:15:15.780Z,96817.00
2018-08-03T06:17:45.920Z,96807.00
2018-08-03T06:20:16.005Z,96808.00
2018-08-03T06:22:46.160Z,96804.00
2018-08-03T06:25:16.248Z,96813.00
2018-08-03T06:27:46.318Z,96808.00
2018-08-03T06:30:16.892Z,96817.00
2018-08-03T06:32:47.361Z,96814.00
2018-08-03T06:35:17.660Z,96811.00
2018-08-03T06:37:47.768Z,96814.00
2018-08-03T06:40:18.644Z,96820.00
2018-08-03T06:42:48.763Z,96819.00
2018-08-03T06:45:18.880Z,96815.00
2018-08-03T06:47:48.972Z,96810.00
2018-08-03T06:50:19.065Z,96820.00
2018-08-03T06:52:49.148Z,96815.00
2018-08-03T06:55:19.266Z,96816.00
2018-08-03T06:57:49.369Z,96815.00
2018-08-03T07:00:19.478Z,96827.00
2018-08-03T07:02:49.615Z,96807.00
2018-08-03T07:05:19.662Z,96822.00
2018-08-03T07:07:49.741Z,96813.00
2018-08-03T07:10:19.826Z,96819.00
2018-08-03T07:12:49.952Z,96817.00
2018-08-03T07:15:20.093Z,96806.00
2018-08-03T07:17:50.768Z,96802.00
2018-08-03T07:20:21.033Z,96812.00
2018-08-03T07:22:51.096Z,96805.00
2018-08-03T07:25:21.364Z,96803.00
2018-08-03T07:27:51.700Z,96813.00
2018-08-03T07:30:21.826Z,96813.00
2018-08-03T07:32:52.107Z,96816.00
2018-08-03T07:35:22.537Z,96801.00
2018-08-03T07:37:52.936Z,96809.00
2018-08-03T07:40:23.195Z,96811.00
2018-08-03T07:42:53.455Z,96813.00
2018-08-03T07:45:23.628Z,96814.00
2018-08-03T07:47:53.777Z,96810.00
2018-08-03T07:50:23.843Z,96810.00
2018-08-03T07:52:53.975Z,96812.00
2018-08-03T07:55:24.309Z,96812.00
2018-08-03T07:57:54.808Z,96806.00
2018-08-03T08:00:24.923Z,96807.00
2018-08-03T08:02:55.072Z,96811.00
2018-08-03T08:05:25.534Z,96804.00
2018-08-03T08:11:28.193Z,96801.00
2018-08-03T08:13:58.400Z,96806.00
2018-08-03T08:16:28.508Z,96813.00
2018-08-03T08:18:58.796Z,96804.00
2018-08-03T08:21:28.877Z,96808.00
2018-08-03T08:23:58.990Z,96803.00
2018-08-03T08:26:29.097Z,96804.00
2018-08-03T08:28:59.391Z,96803.00
2018-08-03T08:31:30.299Z,96804.00
2018-08-03T08:34:00.432Z,96795.00
2018-08-03T08:36:30.565Z,96802.00
2018-08-03T08:39:00.832Z,96796.00
2018-08-03T08:41:30.996Z,96803.00
2018-08-03T08:44:01.311Z,96801.00
2018-08-03T08:46:31.624Z,96797.00
2018-08-03T08:49:01.725Z,96800.00
2018-08-03T08:51:31.808Z,96798.00
2018-08-03T08:54:01.908Z,96798.00
2018-08-03T08:56:32.010Z,96803.00
2018-08-03T08:59:02.132Z,96799.00
2018-08-03T09:01:32.220Z,96797.00
2018-08-03T09:04:02.360Z,96788.00
2018-08-03T09:06:32.444Z,96790.00
2018-08-03T09:09:02.577Z,96792.00
2018-08-03T09:11:32.650Z,96778.00
2018-08-03T09:14:02.765Z,96781.00
2018-08-03T09:16:32.887Z,96766.00
2018-08-03T09:19:03.148Z,96776.00
2018-08-03T09:21:33.359Z,96765.00
2018-08-03T09:24:03.500Z,96770.00
2018-08-03T09:26:33.599Z,96772.00
2018-08-03T09:29:03.700Z,96768.00
2018-08-03T09:31:33.808Z,96761.00
2018-08-03T09:34:03.952Z,96767.00
2018-08-03T09:36:34.176Z,96762.00
2018-08-03T09:39:05.772Z,96766.00
2018-08-03T09:41:35.864Z,96760.00
2018-08-03T09:44:06.448Z,96758.00
2018-08-03T09:46:36.604Z,96761.00
2018-08-03T09:49:07.359Z,96753.00
2018-08-03T09:51:37.424Z,96755.00
2018-08-03T09:54:07.640Z,96757.00
2018-08-03T09:56:37.768Z,96765.00
2018-08-03T09:59:07.919Z,96763.00
2018-08-03T10:01:38.006Z,96768.00
2018-08-03T10:04:08.120Z,96762.00
2018-08-03T10:06:38.306Z,96768.00
2018-08-03T10:09:09.196Z,96750.00
2018-08-03T10:11:39.324Z,96756.00
2018-08-03T10:14:09.593Z,96757.00
2018-08-03T10:16:39.919Z,96759.00
2018-08-03T10:19:10.057Z,96767.00
2018-08-03T10:21:40.143Z,96768.00
2018-08-03T10:24:10.228Z,96771.00
2018-08-03T10:26:40.452Z,96772.00
2018-08-03T10:29:10.635Z,96767.00
2018-08-03T10:31:40.840Z,96769.00
2018-08-03T10:34:11.168Z,96759.00
2018-08-03T10:36:41.267Z,96768.00
2018-08-03T10:39:11.728Z,96773.00
2018-08-03T10:41:41.937Z,96778.00
2018-08-03T10:44:12.337Z,96773.00
2018-08-03T10:46:42.465Z,96775.00
2018-08-03T10:49:12.916Z,96784.00
2018-08-03T10:51:43.001Z,96784.00
2018-08-03T10:54:13.124Z,96789.00
2018-08-03T10:56:43.293Z,96793.00
2018-08-03T10:59:13.555Z,96778.00
2018-08-03T11:01:43.780Z,96771.00
2018-08-03T11:04:13.875Z,96774.00
2018-08-03T11:06:44.162Z,96776.00
2018-08-03T11:09:14.332Z,96766.00
2018-08-03T11:11:44.495Z,96770.00
2018-08-03T11:14:14.671Z,96770.00
2018-08-03T11:16:44.828Z,96763.00
2018-08-03T11:19:15.046Z,96755.00
2018-08-03T11:21:45.168Z,96753.00
2018-08-03T11:24:15.371Z,96760.00
2018-08-03T11:26:45.427Z,96747.00
2018-08-03T11:29:15.544Z,96757.00
2018-08-03T11:31:45.634Z,96762.00
2018-08-03T11:34:15.747Z,96764.00
2018-08-03T11:36:45.808Z,96764.00
2018-08-03T11:39:15.956Z,96769.00
2018-08-03T11:41:46.184Z,96765.00
2018-08-03T11:44:16.484Z,96782.00
2018-08-03T11:46:47.056Z,96768.00
2018-08-03T11:49:17.239Z,96782.00
2018-08-03T11:51:47.348Z,96792.00
2018-08-03T11:54:17.479Z,96807.00
2018-08-03T11:56:47.540Z,96796.00
2018-08-03T11:59:17.660Z,96803.00
2018-08-03T12:01:47.789Z,96814.00
2018-08-03T12:04:19.326Z,96825.00
2018-08-03T12:06:49.601Z,96832.00
2018-08-03T12:09:19.647Z,96835.00
2018-08-03T12:11:49.752Z,96825.00
2018-08-03T12:14:20.179Z,96815.00
2018-08-03T12:16:50.441Z,96822.00
2018-08-03T12:19:20.559Z,96826.00
2018-08-03T12:21:50.800Z,96819.00
2018-08-03T12:24:20.865Z,96824.00
2018-08-03T12:26:51.143Z,96824.00
2018-08-03T12:29:21.275Z,96817.00
2018-08-03T12:31:51.346Z,96816.00
2018-08-03T12:34:21.739Z,96809.00
2018-08-03T12:36:51.859Z,96812.00
2018-08-03T12:39:21.977Z,96797.00
2018-08-03T12:41:52.255Z,96791.00
2018-08-03T12:44:22.327Z,96798.00
2018-08-03T12:46:53.555Z,96801.00
2018-08-03T12:49:26.575Z,96800.00
2018-08-03T12:51:56.657Z,96788.00
2018-08-03T12:54:27.024Z,96787.00
2018-08-03T12:56:57.088Z,96792.00
2018-08-03T12:59:27.261Z,96793.00
2018-08-03T13:01:57.304Z,96790.00
2018-08-03T13:04:27.426Z,96780.00
2018-08-03T13:06:57.503Z,96772.00
2018-08-03T13:09:28.984Z,96769.00
2018-08-03T13:11:59.123Z,96767.00
2018-08-03T13:14:29.219Z,96772.00
2018-08-03T13:16:59.315Z,96765.00
2018-08-03T13:19:29.403Z,96772.00
2018-08-03T13:21:59.584Z,96772.00
2018-08-03T13:24:29.708Z,96783.00
2018-08-03T13:26:59.908Z,96790.00
2018-08-03T13:29:30.145Z,96792.00
2018-08-03T13:32:00.200Z,96789.00
2018-08-03T13:34:30.320Z,96793.00
2018-08-03T13:37:00.415Z,96785.00
2018-08-03T13:39:31.982Z,96782.00
2018-08-03T13:42:02.168Z,96781.00
2018-08-03T13:44:33.177Z,96772.00
2018-08-03T13:47:05.368Z,96766.00
2018-08-03T13:49:36.727Z,96767.00
2018-08-03T13:52:07.339Z,96761.00
2018-08-03T13:54:37.486Z,96770.00
2018-08-03T13:57:07.907Z,96770.00
2018-08-03T13:59:38.200Z,96771.00
2018-08-03T14:02:18.871Z,96766.00
2018-08-03T14:04:49.128Z,96764.00
2018-08-03T14:07:19.308Z,96747.00
2018-08-03T14:09:49.420Z,96745.00
2018-08-03T14:12:19.645Z,96733.00
2018-08-03T14:14:49.736Z,96745.00
2018-08-03T14:17:20.154Z,96730.00
2018-08-03T14:19:50.283Z,96720.00
2018-08-03T14:22:20.459Z,96716.00
2018-08-03T14:24:50.752Z,96706.00
2018-08-03T14:27:20.841Z,96696.00
2018-08-03T14:29:50.932Z,96700.00
2018-08-03T14:32:21.023Z,96692.00
2018-08-03T14:34:51.115Z,96692.00
2018-08-03T14:37:21.208Z,96692.00
2018-08-03T14:39:51.331Z,96689.00
2018-08-03T14:42:21.689Z,96685.00
2018-08-03T14:44:51.767Z,96676.00
2018-08-03T14:47:21.847Z,96673.00
2018-08-03T14:49:52.044Z,96668.00
2018-08-03T14:52:22.236Z,96672.00
2018-08-03T14:54:52.547Z,96661.00
2018-08-03T14:57:22.656Z,96668.00
2018-08-03T14:59:52.735Z,96670.00
2018-08-03T15:02:22.864Z,96673.00
2018-08-03T15:04:52.928Z,96674.00
2018-08-03T15:07:23.076Z,96675.00
2018-08-03T15:09:53.239Z,96671.00
2018-08-03T15:12:23.510Z,96680.00
2018-08-03T15:14:53.635Z,96681.00
2018-08-03T15:17:23.967Z,96680.00
2018-08-03T15:19:54.084Z,96683.00
2018-08-03T15:22:24.468Z,96678.00
2018-08-03T15:24:54.945Z,96668.00
2018-08-03T15:27:25.040Z,96674.00
2018-08-03T15:29:55.239Z,96670.00
2018-08-03T15:32:25.292Z,96663.00
2018-08-03T15:34:55.362Z,96671.00
2018-08-03T15:37:25.531Z,96669.00
2018-08-03T15:39:55.680Z,96670.00
2018-08-03T15:42:25.763Z,96667.00
2018-08-03T15:44:55.936Z,96666.00
2018-08-03T15:47:26.106Z,96665.00
2018-08-03T15:49:56.199Z,96675.00
2018-08-03T15:52:26.311Z,96674.00
2018-08-03T15:54:56.405Z,96679.00
2018-08-03T15:57:26.497Z,96675.00
2018-08-03T15:59:56.571Z,96670.00
2018-08-03T16:02:26.800Z,96674.00
2018-08-03T16:04:56.900Z,96670.00
2018-08-03T16:07:27.078Z,96661.00
2018-08-03T16:09:57.246Z,96660.00
2018-08-03T16:12:27.520Z,96654.00
2018-08-03T16:14:57.999Z,96646.00
2018-08-03T16:17:28.232Z,96646.00
2018-08-03T16:19:58.375Z,96650.00
2018-08-03T16:22:28.585Z,96646.00
2018-08-03T16:24:59.008Z,96647.00
2018-08-03T16:27:29.247Z,96643.00
2018-08-03T16:29:59.511Z,96640.00
2018-08-03T16:32:29.724Z,96635.00
2018-08-03T16:34:59.907Z,96637.00
2018-08-03T16:37:30.183Z,96638.00
2018-08-03T16:40:00.287Z,96637.00
2018-08-03T16:42:30.394Z,96635.00
2018-08-03T16:45:00.558Z,96630.00
2018-08-03T16:47:30.688Z,96634.00
2018-08-03T16:50:00.917Z,96626.00
2018-08-03T16:52:31.116Z,96628.00
2018-08-03T16:55:01.241Z,96628.00
2018-08-03T16:57:31.394Z,96630.00
2018-08-03T17:00:01.775Z,96620.00
2018-08-03T17:02:31.929Z,96626.00
2018-08-03T17:05:02.081Z,96626.00
2018-08-03T17:07:32.211Z,96632.00
2018-08-03T17:10:02.338Z,96633.00
2018-08-03T17:12:32.644Z,96625.00
2018-08-03T17:15:02.780Z,96637.00
2018-08-03T17:17:32.887Z,96633.00
2018-08-03T17:20:02.979Z,96636.00
2018-08-03T17:22:33.217Z,96638.00
2018-08-03T17:25:03.863Z,96631.00
2018-08-03T17:27:34.868Z,96630.00
2018-08-03T17:30:05.548Z,96635.00
2018-08-03T17:32:35.612Z,96635.00
2018-08-03T17:35:05.755Z,96631.00
2018-08-03T17:37:35.881Z,96629.00
2018-08-03T17:40:06.401Z,96634.00
2018-08-03T17:42:36.611Z,96636.00
2018-08-03T17:45:06.804Z,96641.00
2018-08-03T17:47:36.968Z,96632.00
2018-08-03T17:50:07.629Z,96639.00
2018-08-03T17:52:38.227Z,96636.00
2018-08-03T17:55:08.595Z,96635.00
2018-08-03T17:57:41.302Z,96634.00
2018-08-03T18:00:12.496Z,96644.00
2018-08-03T18:02:43.084Z,96641.00
2018-08-03T18:05:13.309Z,96638.00
2018-08-03T18:07:43.874Z,96644.00
2018-08-03T18:10:14.326Z,96642.00
2018-08-03T18:12:44.991Z,96649.00
2018-08-03T18:15:15.583Z,96649.00
2018-08-03T18:17:46.456Z,96646.00
2018-08-03T18:20:16.864Z,96642.00
2018-08-03T18:22:47.008Z,96636.00
2018-08-03T18:25:17.827Z,96639.00
2018-08-03T18:27:48.019Z,96649.00
2018-08-03T18:30:18.520Z,96652.00
2018-08-03T18:32:49.110Z,96655.00
2018-08-03T18:35:19.440Z,96662.00
2018-08-03T18:37:49.910Z,96658.00
2018-08-03T18:40:20.007Z,96655.00
2018-08-03T18:42:50.692Z,96668.00
2018-08-03T18:45:21.332Z,96659.00
2018-08-03T18:47:52.003Z,96666.00
2018-08-03T18:50:22.573Z,96660.00
2018-08-03T18:52:52.799Z,96659.00
2018-08-03T18:55:23.147Z,96660.00
2018-08-03T18:57:53.392Z,96658.00
2018-08-03T19:00:23.503Z,96671.00
2018-08-03T19:02:53.594Z,96673.00
2018-08-03T19:05:23.968Z,96673.00
2018-08-03T19:07:54.770Z,96676.00
2018-08-03T19:10:26.484Z,96674.00
2018-08-03T19:12:56.799Z,96671.00
2018-08-03T19:15:27.944Z,96667.00
2018-08-03T19:17:59.417Z,96665.00
2018-08-03T19:20:30.212Z,96668.00
2018-08-03T19:23:00.679Z,96663.00
2018-08-03T19:25:31.140Z,96669.00
2018-08-03T19:28:01.492Z,96671.00
2018-08-03T19:30:31.847Z,96678.00
2018-08-03T19:33:10.284Z,96674.00
2018-08-03T19:35:40.377Z,96674.00
2018-08-03T19:38:10.456Z,96674.00
2018-08-03T19:40:40.599Z,96671.00
2018-08-03T19:43:10.764Z,96679.00
2018-08-03T19:45:40.896Z,96679.00
2018-08-03T19:48:10.980Z,96686.00
2018-08-03T19:50:41.063Z,96689.00
2018-08-03T19:53:11.152Z,96686.00
2018-08-03T19:55:41.283Z,96682.00
2018-08-03T19:58:11.363Z,96676.00
2018-08-03T20:00:41.493Z,96682.00
2018-08-03T20:03:11.904Z,96683.00
2018-08-03T20:05:42.071Z,96694.00
2018-08-03T20:08:12.251Z,96697.00
2018-08-03T20:10:42.561Z,96698.00
2018-08-03T20:13:12.650Z,96708.00
2018-08-03T20:15:42.780Z,96703.00
2018-08-03T20:18:12.821Z,96704.00
2018-08-03T20:20:42.884Z,96702.00
2018-08-03T20:23:12.944Z,96699.00
2018-08-03T20:25:43.083Z,96702.00
2018-08-03T20:28:13.212Z,96703.00
2018-08-03T20:30:43.468Z,96695.00
2018-08-03T20:33:13.456Z,96695.00
2018-08-03T20:36:01.934Z,96691.00
2018-08-03T20:38:33.289Z,96701.00
2018-08-03T20:41:03.427Z,96687.00
2018-08-03T20:43:33.653Z,96694.00
2018-08-03T20:46:05.489Z,96684.00
2018-08-03T20:48:35.681Z,96682.00
2018-08-03T20:51:07.631Z,96685.00
2018-08-03T20:53:37.734Z,96690.00
2018-08-03T20:56:09.388Z,96688.00
2018-08-03T20:58:39.480Z,96691.00
2018-08-03T21:01:09.608Z,96696.00
2018-08-03T21:03:41.450Z,96696.00
2018-08-03T21:09:19.152Z,96692.00
2018-08-03T21:11:58.769Z,96695.00
2018-08-03T21:14:28.885Z,96690.00
2018-08-03T21:17:27.017Z,96689.00
2018-08-03T21:19:57.298Z,96687.00
2018-08-03T21:22:28.192Z,96686.00
2018-08-03T21:24:58.272Z,96694.00
2018-08-03T21:27:28.388Z,96691.00
2018-08-03T21:29:58.496Z,96693.00
2018-08-03T21:32:45.389Z,96696.00
2018-08-03T21:57:49.620Z,96695.00
2018-08-03T22:03:26.616Z,96686.00
2018-08-03T22:05:58.737Z,96692.00
2018-08-03T22:08:55.370Z,96688.00
2018-08-03T22:11:29.001Z,96691.00
2018-08-03T22:13:59.083Z,96693.00
2018-08-03T22:16:30.470Z,96692.00
2018-08-03T22:19:00.670Z,96697.00
2018-08-03T22:21:30.829Z,96690.00
2018-08-03T22:24:00.975Z,96688.00
2018-08-03T22:26:31.262Z,96685.00
2018-08-03T22:29:01.446Z,96680.00
2018-08-03T22:31:31.565Z,96682.00
2018-08-03T22:34:01.681Z,96677.00
2018-08-03T22:36:31.773Z,96683.00
2018-08-03T22:39:04.930Z,96674.00
2018-08-03T22:44:41.720Z,96677.00
2018-08-03T22:47:11.852Z,96674.00
2018-08-03T22:49:42.021Z,96667.00
2018-08-03T22:52:12.088Z,96668.00
2018-08-03T22:54:42.169Z,96665.00
2018-08-03T22:57:12.307Z,96658.00
2018-08-03T22:59:42.449Z,96664.00
2018-08-03T23:02:12.563Z,96653.00
2018-08-03T23:05:04.401Z,96655.00
2018-08-03T23:07:34.492Z,96656.00
2018-08-03T23:10:04.851Z,96652.00
2018-08-03T23:12:41.616Z,96655.00
2018-08-03T23:15:11.724Z,96647.00
2018-08-03T23:17:41.819Z,96643.00
2018-08-03T23:20:11.924Z,96648.00
2018-08-03T23:22:42.020Z,96639.00
2018-08-03T23:25:17.468Z,96633.00
2018-08-03T23:30:59.958Z,96635.00
2018-08-03T23:33:30.159Z,96637.00
2018-08-03T23:36:15.976Z,96631.00
2018-08-03T23:38:46.068Z,96633.00
2018-08-03T23:41:16.211Z,96630.00
2018-08-03T23:43:46.328Z,96627.00
2018-08-03T23:49:30.345Z,96628.00
2018-08-03T23:52:00.460Z,96621.00
2018-08-03T23:57:47.815Z,96616.00
